Time;durP1;ratioP1;P1;durP2;ratioP2;P2;SDS_P1;SDS_P2;PMS_P1;PMS_P2;Temp;Humidity;BMP_temperature;BMP_pressure;BME280_temperature;BME280_humidity;BME280_pressure;Samples;Min_cycle;Max_cycle;Signal;HPM_P1;HPM_P2
2021/05/15 00:01:48;;;;;;;29.35;26.35;;;11.50;96.10;;;;;;5031243;28;20025;-64
2021/05/15 00:04:14;;;;;;;31.70;25.45;;;11.70;95.70;;;;;;5025702;28;20029;-65
2021/05/15 00:06:40;;;;;;;27.80;24.13;;;11.90;95.40;;;;;;5023121;28;20038;-64
2021/05/15 00:09:06;;;;;;;29.00;24.58;;;11.90;95.10;;;;;;5031221;28;20052;-65
2021/05/15 00:11:32;;;;;;;25.90;23.27;;;12.00;95.00;;;;;;5030554;28;20037;-64
2021/05/15 00:13:57;;;;;;;23.40;20.98;;;12.00;95.20;;;;;;5032536;28;20040;-65
2021/05/15 00:16:23;;;;;;;26.13;23.40;;;12.10;95.00;;;;;;5032286;28;20400;-65
2021/05/15 00:18:48;;;;;;;24.63;22.13;;;12.30;94.90;;;;;;5031232;28;20076;-65
2021/05/15 00:21:14;;;;;;;27.08;23.90;;;12.30;94.70;;;;;;5031124;28;20037;-65
2021/05/15 00:23:40;;;;;;;24.30;21.98;;;12.30;94.60;;;;;;5046776;28;20452;-65
2021/05/15 00:26:06;;;;;;;24.80;22.30;;;12.20;94.70;;;;;;5045802;28;20120;-64
2021/05/15 00:28:31;;;;;;;25.75;21.88;;;12.30;94.70;;;;;;5030836;28;20045;-64
2021/05/15 00:30:57;;;;;;;24.27;21.98;;;12.30;94.60;;;;;;5030975;28;20037;-64
2021/05/15 00:33:25;;;;;;;26.08;23.27;;;12.30;94.50;;;;;;5031183;28;20030;-64
2021/05/15 00:35:51;;;;;;;26.27;23.30;;;12.40;94.50;;;;;;5030819;28;20026;-65
2021/05/15 00:38:17;;;;;;;25.30;22.70;;;12.40;94.30;;;;;;5030806;28;20110;-65
2021/05/15 00:40:43;;;;;;;25.05;22.25;;;12.40;94.50;;;;;;5030747;28;20488;-65
2021/05/15 00:43:09;;;;;;;25.42;22.73;;;12.30;94.60;;;;;;5030716;28;20057;-65
2021/05/15 00:45:35;;;;;;;26.52;23.77;;;12.30;94.60;;;;;;5031018;28;20041;-64
2021/05/15 00:48:01;;;;;;;26.65;23.85;;;12.20;94.70;;;;;;5031033;28;20482;-64
2021/05/15 00:50:28;;;;;;;25.10;22.42;;;12.30;94.70;;;;;;5030192;28;20040;-65
2021/05/15 00:52:54;;;;;;;24.77;22.13;;;12.30;94.70;;;;;;5030670;28;20033;-65
2021/05/15 00:55:21;;;;;;;26.00;23.20;;;12.30;94.60;;;;;;5030341;28;20083;-65
2021/05/15 00:57:47;;;;;;;25.45;22.80;;;12.30;94.60;;;;;;5030632;28;20030;-64
2021/05/15 01:00:14;;;;;;;26.05;22.70;;;12.30;94.50;;;;;;5031736;28;20033;-65
2021/05/15 01:02:41;;;;;;;24.73;22.25;;;12.40;94.40;;;;;;5034631;28;20052;-67
2021/05/15 01:05:09;;;;;;;25.40;22.85;;;12.40;94.40;;;;;;5033963;28;20053;-64
2021/05/15 01:07:35;;;;;;;26.45;22.20;;;12.40;94.40;;;;;;5033641;28;20037;-64
2021/05/15 01:10:00;;;;;;;40.97;32.90;;;12.30;94.30;;;;;;5033989;28;20040;-65
2021/05/15 01:12:26;;;;;;;65.72;48.83;;;12.30;94.40;;;;;;5044527;28;20114;-65
2021/05/15 01:14:52;;;;;;;60.47;44.53;;;12.30;94.40;;;;;;5033854;28;20045;-64
2021/05/15 01:17:17;;;;;;;42.55;33.97;;;12.30;94.40;;;;;;5033711;28;20493;-64
2021/05/15 01:19:43;;;;;;;29.85;26.05;;;12.20;94.40;;;;;;5033486;28;20099;-65
2021/05/15 01:22:12;;;;;;;25.10;22.42;;;12.30;94.40;;;;;;5038468;28;20041;-64
2021/05/15 01:24:40;;;;;;;25.48;22.75;;;12.20;94.30;;;;;;5030314;28;20098;-65
2021/05/15 01:27:07;;;;;;;25.33;22.67;;;12.20;94.30;;;;;;5031065;28;20294;-64
2021/05/15 01:29:34;;;;;;;24.73;22.15;;;12.20;94.20;;;;;;5032994;28;20034;-65
2021/05/15 01:32:00;;;;;;;24.17;21.67;;;12.10;94.20;;;;;;5024870;28;20038;-65
2021/05/15 01:34:26;;;;;;;24.17;21.73;;;12.00;94.20;;;;;;5032492;28;20116;-64
2021/05/15 01:36:51;;;;;;;24.63;22.13;;;12.00;94.40;;;;;;5032169;28;20165;-65
2021/05/15 01:39:17;;;;;;;25.15;22.45;;;12.00;94.20;;;;;;5033175;28;20044;-66
2021/05/15 01:41:44;;;;;;;23.38;21.08;;;12.00;94.20;;;;;;5034573;28;20037;-64
2021/05/15 01:44:10;;;;;;;25.20;22.60;;;12.00;94.30;;;;;;5035138;28;20436;-64
2021/05/15 01:46:35;;;;;;;24.17;21.67;;;12.00;94.20;;;;;;5033274;28;20124;-64
2021/05/15 01:49:01;;;;;;;22.88;20.58;;;11.90;94.10;;;;;;5033530;28;20129;-64
2021/05/15 01:51:27;;;;;;;21.75;19.60;;;11.90;94.10;;;;;;5032533;28;20123;-64
2021/05/15 01:53:53;;;;;;;23.88;21.48;;;11.90;94.10;;;;;;5033518;28;20473;-64
2021/05/15 01:56:24;;;;;;;22.88;20.45;;;11.80;94.10;;;;;;5032621;28;20037;-64
2021/05/15 01:58:51;;;;;;;22.33;20.13;;;11.80;94.10;;;;;;5032787;28;20049;-64
2021/05/15 02:01:18;;;;;;;21.02;18.52;;;11.80;94.10;;;;;;5031810;28;20570;-64
2021/05/15 02:03:45;;;;;;;24.35;19.02;;;11.70;94.10;;;;;;5029969;28;20068;-64
2021/05/15 02:06:11;;;;;;;21.58;19.48;;;11.70;94.00;;;;;;5032646;28;20036;-64
2021/05/15 02:08:36;;;;;;;20.92;18.83;;;11.70;94.00;;;;;;5033042;28;20131;-64
2021/05/15 02:11:03;;;;;;;19.58;17.63;;;11.70;93.90;;;;;;5031770;28;20033;-64
2021/05/15 02:13:30;;;;;;;17.88;16.08;;;11.60;93.80;;;;;;5048172;28;20037;-64
2021/05/15 02:15:57;;;;;;;19.58;17.70;;;11.60;93.80;;;;;;5032550;28;20029;-65
2021/05/15 02:18:23;;;;;;;26.70;23.83;;;11.60;93.80;;;;;;5032324;28;20405;-64
2021/05/15 02:20:50;;;;;;;24.48;21.92;;;11.50;93.90;;;;;;5030030;28;20051;-64
2021/05/15 02:23:16;;;;;;;24.05;21.55;;;11.50;93.90;;;;;;5031754;28;20025;-63
2021/05/15 02:25:42;;;;;;;26.88;23.98;;;11.40;94.20;;;;;;5032239;28;20045;-65
2021/05/15 02:28:09;;;;;;;24.35;21.77;;;11.40;94.30;;;;;;5031031;28;20037;-64
2021/05/15 02:30:35;;;;;;;23.55;21.17;;;11.40;94.30;;;;;;5029829;28;20048;-64
2021/05/15 02:33:01;;;;;;;30.52;25.75;;;11.40;94.20;;;;;;5031803;28;20044;-65
2021/05/15 02:35:27;;;;;;;24.75;21.30;;;11.30;94.20;;;;;;5031636;28;20042;-64
2021/05/15 02:37:53;;;;;;;23.55;21.10;;;11.30;94.30;;;;;;5031599;28;20033;-64
2021/05/15 02:40:20;;;;;;;23.15;20.75;;;11.30;94.20;;;;;;5031390;28;20029;-64
2021/05/15 02:42:49;;;;;;;23.42;20.95;;;11.10;94.40;;;;;;5032314;28;20032;-64
2021/05/15 02:45:15;;;;;;;22.83;20.48;;;11.10;94.40;;;;;;5032398;28;20489;-64
2021/05/15 02:47:41;;;;;;;23.35;20.92;;;11.00;94.20;;;;;;5030944;28;20037;-64
2021/05/15 02:50:10;;;;;;;22.67;20.25;;;11.00;94.30;;;;;;5032183;28;20063;-64
2021/05/15 02:52:35;;;;;;;22.00;19.88;;;11.00;94.40;;;;;;5032211;28;20029;-64
2021/05/15 02:55:03;;;;;;;20.33;18.33;;;10.90;94.40;;;;;;5032472;28;20392;-64
2021/05/15 02:57:29;;;;;;;24.70;22.10;;;10.90;94.50;;;;;;5032285;28;20035;-63
2021/05/15 02:59:55;;;;;;;21.17;19.08;;;10.90;94.40;;;;;;5032086;28;20124;-65
2021/05/15 03:02:20;;;;;;;18.60;16.88;;;10.90;94.40;;;;;;5031823;28;20033;-62
2021/05/15 03:04:46;;;;;;;20.10;18.00;;;10.80;94.50;;;;;;5032678;28;20072;-62
2021/05/15 03:07:11;;;;;;;19.05;17.05;;;10.90;94.60;;;;;;5021234;28;20038;-62
2021/05/15 03:09:37;;;;;;;19.55;17.70;;;10.90;94.40;;;;;;5033007;28;20038;-62
2021/05/15 03:12:03;;;;;;;20.05;18.05;;;10.90;94.40;;;;;;5034324;28;20076;-63
2021/05/15 03:14:29;;;;;;;19.20;17.25;;;10.90;94.20;;;;;;5025546;28;20503;-62
2021/05/15 03:16:55;;;;;;;19.45;17.40;;;10.90;94.20;;;;;;5031744;28;20117;-64
2021/05/15 03:19:20;;;;;;;20.33;18.23;;;10.90;94.20;;;;;;5031639;28;20048;-65
2021/05/15 03:21:46;;;;;;;18.70;16.80;;;10.90;94.10;;;;;;5024087;28;20075;-61
2021/05/15 03:24:12;;;;;;;19.55;17.55;;;10.90;94.20;;;;;;5011668;28;20045;-62
2021/05/15 03:26:37;;;;;;;19.98;17.85;;;10.90;94.10;;;;;;5031410;28;20054;-62
2021/05/15 03:29:03;;;;;;;20.90;18.80;;;10.90;94.00;;;;;;5031447;28;20049;-64
2021/05/15 03:31:28;;;;;;;22.85;20.45;;;10.80;94.00;;;;;;5031004;28;20063;-63
2021/05/15 03:33:54;;;;;;;21.48;17.75;;;10.80;93.90;;;;;;5030450;28;20037;-63
2021/05/15 03:36:21;;;;;;;19.83;17.38;;;10.70;93.90;;;;;;5031059;28;20061;-63
2021/05/15 03:38:47;;;;;;;20.95;18.48;;;10.70;93.90;;;;;;5030999;28;20410;-60
2021/05/15 03:41:12;;;;;;;20.23;17.65;;;10.70;94.00;;;;;;5031468;28;20040;-62
2021/05/15 03:43:38;;;;;;;20.42;17.58;;;10.60;94.30;;;;;;5010518;28;20030;-63
2021/05/15 03:46:04;;;;;;;18.45;16.10;;;10.50;94.30;;;;;;5024397;28;20133;-63
2021/05/15 03:48:29;;;;;;;16.90;14.95;;;10.50;94.10;;;;;;5029717;28;20071;-63
2021/05/15 03:50:55;;;;;;;15.57;13.98;;;10.50;94.10;;;;;;5031357;28;20037;-63
2021/05/15 03:53:21;;;;;;;18.10;13.40;;;10.50;94.00;;;;;;5030192;28;20037;-62
2021/05/15 03:55:47;;;;;;;13.82;12.43;;;10.40;93.80;;;;;;5031671;28;20046;-63
2021/05/15 03:58:14;;;;;;;13.20;11.82;;;10.40;93.70;;;;;;5029452;28;20044;-62
2021/05/15 04:00:40;;;;;;;13.27;11.68;;;10.30;93.70;;;;;;5029980;28;20128;-63
2021/05/15 04:03:05;;;;;;;14.55;11.38;;;10.30;93.60;;;;;;5031232;28;20561;-63
2021/05/15 04:05:31;;;;;;;12.63;11.18;;;10.30;94.10;;;;;;5029967;28;20651;-61
2021/05/15 04:07:57;;;;;;;14.52;11.77;;;10.20;93.90;;;;;;5030964;28;20048;-63
2021/05/15 04:10:23;;;;;;;16.42;11.00;;;10.20;93.90;;;;;;5030829;28;20096;-62
2021/05/15 04:13:21;;;;;;;11.63;10.45;;;10.20;93.80;;;;;;5031361;28;20055;-62
2021/05/15 04:15:42;;;;;;;17.67;10.73;;;10.30;93.80;;;;;;5031035;28;20033;-62
2021/05/15 04:18:09;;;;;;;11.73;10.45;;;10.40;93.50;;;;;;5030690;28;20040;-60
2021/05/15 04:20:40;;;;;;;12.32;9.82;;;10.50;93.40;;;;;;5025030;28;20038;-62
2021/05/15 04:23:06;;;;;;;11.02;9.93;;;10.50;93.30;;;;;;5023016;28;20462;-61
2021/05/15 04:25:33;;;;;;;10.40;9.10;;;10.50;93.20;;;;;;5024040;28;20042;-62
2021/05/15 04:27:59;;;;;;;10.05;9.05;;;10.50;93.20;;;;;;5030457;28;20099;-62
2021/05/15 04:30:25;;;;;;;10.98;8.65;;;10.50;93.00;;;;;;5030669;28;20034;-63
2021/05/15 04:32:51;;;;;;;10.88;8.25;;;10.60;92.90;;;;;;5030639;28;20038;-63
2021/05/15 04:35:17;;;;;;;8.73;7.47;;;10.60;92.90;;;;;;5033579;28;20496;-62
2021/05/15 04:37:43;;;;;;;8.00;6.93;;;10.70;92.70;;;;;;5035969;28;20092;-63
2021/05/15 04:40:09;;;;;;;8.10;7.30;;;10.80;92.70;;;;;;5035584;28;20116;-63
2021/05/15 04:42:37;;;;;;;7.43;6.72;;;10.90;92.60;;;;;;5034480;28;20120;-63
2021/05/15 04:45:08;;;;;;;7.72;6.45;;;10.90;92.30;;;;;;5034863;28;20083;-63
2021/05/15 04:47:34;;;;;;;6.40;5.20;;;11.00;92.10;;;;;;5033412;28;20451;-62
2021/05/15 04:50:00;;;;;;;7.68;5.80;;;11.00;92.00;;;;;;5034350;28;20025;-63
2021/05/15 04:52:26;;;;;;;7.75;6.75;;;11.00;92.10;;;;;;5033233;28;20035;-63
2021/05/15 04:54:52;;;;;;;6.85;6.10;;;11.10;92.00;;;;;;5034769;28;20136;-62
2021/05/15 04:57:17;;;;;;;5.70;4.80;;;11.20;91.90;;;;;;5034292;28;20033;-62
2021/05/15 04:59:43;;;;;;;5.85;4.85;;;11.20;91.70;;;;;;5034160;28;20042;-63
2021/05/15 05:02:09;;;;;;;5.57;5.07;;;11.30;91.80;;;;;;5034266;28;20026;-63
2021/05/15 05:04:35;;;;;;;6.03;4.70;;;11.40;91.50;;;;;;5034178;28;20021;-62
2021/05/15 05:07:01;;;;;;;5.68;4.53;;;11.50;91.50;;;;;;5034573;28;20033;-61
2021/05/15 05:09:27;;;;;;;5.07;4.57;;;11.60;91.20;;;;;;5033552;28;20041;-62
2021/05/15 05:11:52;;;;;;;5.78;4.65;;;11.70;91.20;;;;;;5034590;28;20060;-63
2021/05/15 05:14:18;;;;;;;10.35;9.35;;;11.70;91.00;;;;;;5033738;28;20037;-64
2021/05/15 05:16:43;;;;;;;8.60;7.75;;;11.80;91.10;;;;;;5034346;28;20112;-64
2021/05/15 05:19:11;;;;;;;5.40;4.85;;;11.90;90.90;;;;;;5033239;28;20551;-63
2021/05/15 05:21:37;;;;;;;6.32;4.32;;;12.00;90.60;;;;;;5028955;28;20367;-64
2021/05/15 05:24:03;;;;;;;8.68;3.88;;;12.10;90.50;;;;;;5033790;28;20116;-62
2021/05/15 05:26:29;;;;;;;5.22;4.72;;;12.20;90.30;;;;;;5039058;28;20030;-62
2021/05/15 05:28:58;;;;;;;5.32;3.60;;;12.20;90.50;;;;;;5030793;28;20040;-64
2021/05/15 05:31:24;;;;;;;4.78;3.90;;;12.20;90.30;;;;;;5019875;28;20037;-64
2021/05/15 05:33:49;;;;;;;4.55;3.85;;;12.10;90.50;;;;;;5033389;28;20420;-63
2021/05/15 05:36:15;;;;;;;4.07;3.42;;;12.20;90.40;;;;;;5031066;28;20064;-63
2021/05/15 05:38:40;;;;;;;4.45;3.50;;;12.20;90.40;;;;;;5033423;28;20038;-62
2021/05/15 05:41:06;;;;;;;3.80;3.20;;;12.30;90.50;;;;;;5032597;28;20491;-64
2021/05/15 05:43:31;;;;;;;9.27;3.40;;;12.30;90.60;;;;;;5033546;28;20053;-63
2021/05/15 05:45:57;;;;;;;4.57;3.10;;;12.40;90.50;;;;;;5033011;28;20047;-63
2021/05/15 05:48:22;;;;;;;5.65;3.80;;;12.40;90.70;;;;;;5032620;28;20076;-64
2021/05/15 05:50:48;;;;;;;5.07;3.50;;;12.70;90.50;;;;;;5032896;28;20044;-64
2021/05/15 05:53:14;;;;;;;6.80;3.25;;;12.70;90.20;;;;;;5032923;28;20053;-63
2021/05/15 05:55:42;;;;;;;4.90;3.30;;;12.60;90.60;;;;;;5033605;28;20033;-62
2021/05/15 05:58:08;;;;;;;5.80;3.50;;;12.60;90.80;;;;;;5032722;28;20443;-61
2021/05/15 06:00:33;;;;;;;4.05;3.40;;;12.50;90.70;;;;;;5033461;28;20029;-63
2021/05/15 06:02:59;;;;;;;3.90;3.50;;;12.50;91.00;;;;;;5031956;28;20029;-63
2021/05/15 06:05:25;;;;;;;5.40;3.75;;;12.60;90.70;;;;;;5033121;28;20041;-65
2021/05/15 06:07:50;;;;;;;4.47;3.92;;;12.60;91.10;;;;;;5034687;28;20051;-60
2021/05/15 06:10:16;;;;;;;4.13;3.30;;;12.60;91.10;;;;;;5020148;28;20069;-63
2021/05/15 06:12:41;;;;;;;3.70;3.28;;;12.70;90.80;;;;;;5032033;28;20030;-63
2021/05/15 06:15:08;;;;;;;5.57;3.42;;;12.80;90.80;;;;;;5033455;28;20106;-63
2021/05/15 06:17:34;;;;;;;4.57;3.58;;;12.80;91.00;;;;;;5032801;28;20030;-62
2021/05/15 06:20:00;;;;;;;6.68;3.35;;;12.80;91.00;;;;;;5032534;28;20136;-63
2021/05/15 06:22:26;;;;;;;6.97;3.90;;;12.80;91.30;;;;;;5025959;28;20026;-62
2021/05/15 06:24:52;;;;;;;11.00;3.92;;;12.80;91.30;;;;;;5014689;28;20026;-62
2021/05/15 06:27:18;;;;;;;4.32;3.10;;;12.80;91.40;;;;;;5028727;28;20044;-63
2021/05/15 06:29:43;;;;;;;3.85;3.30;;;13.10;91.00;;;;;;5029704;28;20021;-63
2021/05/15 06:32:10;;;;;;;3.72;3.20;;;13.00;90.90;;;;;;5031982;28;20025;-62
2021/05/15 06:34:36;;;;;;;3.70;3.22;;;13.00;91.00;;;;;;5029308;28;20044;-64
2021/05/15 06:37:02;;;;;;;3.63;3.33;;;13.10;90.80;;;;;;5032365;28;20097;-61
2021/05/15 06:39:27;;;;;;;5.75;3.25;;;13.00;90.90;;;;;;5031840;28;20037;-64
2021/05/15 06:41:54;;;;;;;5.95;3.33;;;13.00;91.00;;;;;;5032440;28;20378;-63
2021/05/15 06:44:19;;;;;;;3.63;3.30;;;13.00;91.10;;;;;;5027774;28;20034;-64
2021/05/15 06:46:45;;;;;;;4.35;3.33;;;13.10;91.30;;;;;;5032245;28;20087;-60
2021/05/15 06:49:11;;;;;;;5.57;3.38;;;13.20;91.10;;;;;;5031600;28;20121;-63
2021/05/15 06:51:36;;;;;;;3.80;3.30;;;13.20;90.90;;;;;;5031726;28;20048;-62
2021/05/15 06:54:02;;;;;;;4.20;3.42;;;13.30;90.70;;;;;;5030440;28;20490;-62
2021/05/15 06:56:28;;;;;;;4.47;3.65;;;13.40;90.00;;;;;;5032036;28;20029;-63
2021/05/15 06:58:53;;;;;;;4.75;3.30;;;13.40;90.00;;;;;;5031317;28;20497;-64
2021/05/15 07:01:19;;;;;;;3.83;3.28;;;13.50;90.20;;;;;;5030619;28;20405;-63
2021/05/15 07:03:44;;;;;;;5.55;3.33;;;13.60;89.70;;;;;;5031398;28;20037;-63
2021/05/15 07:06:10;;;;;;;3.63;3.22;;;13.70;89.50;;;;;;5030267;28;20123;-63
2021/05/15 07:08:36;;;;;;;4.00;3.15;;;13.70;88.80;;;;;;5029996;28;20091;-62
2021/05/15 07:11:03;;;;;;;4.72;3.10;;;13.60;88.70;;;;;;5031603;28;20049;-63
2021/05/15 07:13:28;;;;;;;4.13;2.85;;;13.50;88.60;;;;;;5031567;28;20029;-64
2021/05/15 07:15:54;;;;;;;4.85;3.15;;;13.50;89.40;;;;;;5026073;28;20033;-62
2021/05/15 07:18:20;;;;;;;3.78;3.08;;;13.50;88.00;;;;;;5030894;28;20129;-63
2021/05/15 07:20:46;;;;;;;4.50;3.22;;;13.50;88.70;;;;;;5026063;28;20544;-61
2021/05/15 07:23:11;;;;;;;3.63;2.92;;;13.60;88.30;;;;;;5026723;28;20037;-63
2021/05/15 07:25:37;;;;;;;4.38;3.30;;;13.90;88.40;;;;;;5030859;28;20041;-63
2021/05/15 07:28:03;;;;;;;4.65;3.10;;;14.20;87.80;;;;;;5030763;28;20060;-65
2021/05/15 07:30:29;;;;;;;5.75;3.20;;;14.20;86.50;;;;;;5031035;28;20095;-62
2021/05/15 07:32:57;;;;;;;3.83;3.03;;;14.20;86.70;;;;;;5031919;28;20026;-63
2021/05/15 07:35:26;;;;;;;4.80;3.25;;;14.30;86.80;;;;;;5031251;28;20018;-63
2021/05/15 07:37:52;;;;;;;7.15;3.35;;;14.30;87.10;;;;;;5022824;28;20025;-63
2021/05/15 07:40:18;;;;;;;5.30;3.35;;;14.40;87.50;;;;;;5031164;28;20040;-62
2021/05/15 07:42:45;;;;;;;3.78;3.20;;;14.60;87.10;;;;;;5031021;28;20095;-62
2021/05/15 07:45:12;;;;;;;4.25;3.28;;;14.60;86.80;;;;;;5030763;28;20913;-63
2021/05/15 07:47:39;;;;;;;5.10;3.30;;;14.50;87.00;;;;;;5029068;28;20099;-62
2021/05/15 07:50:05;;;;;;;6.70;3.28;;;14.40;85.90;;;;;;5031038;28;20038;-62
2021/05/15 07:52:30;;;;;;;5.10;3.05;;;14.30;85.20;;;;;;5031938;28;20128;-64
2021/05/15 07:54:56;;;;;;;4.63;2.90;;;14.30;84.90;;;;;;5031893;28;20397;-62
2021/05/15 07:57:22;;;;;;;5.20;3.10;;;14.30;85.90;;;;;;5031802;28;20040;-63
2021/05/15 07:59:47;;;;;;;4.75;3.05;;;14.30;84.50;;;;;;5018626;28;20030;-63
2021/05/15 08:02:13;;;;;;;4.80;2.92;;;14.20;84.50;;;;;;5027762;28;20045;-61
2021/05/15 08:04:39;;;;;;;3.55;2.70;;;14.20;84.80;;;;;;5028704;28;20095;-63
2021/05/15 08:07:04;;;;;;;5.63;2.97;;;14.20;84.80;;;;;;5029902;28;20057;-62
2021/05/15 08:09:30;;;;;;;3.85;2.70;;;14.30;84.40;;;;;;5023599;28;20551;-63
2021/05/15 08:11:56;;;;;;;2.97;2.60;;;14.30;84.00;;;;;;5033875;28;20029;-62
2021/05/15 08:14:21;;;;;;;3.38;2.72;;;14.30;85.20;;;;;;5014920;28;20030;-66
2021/05/15 08:16:47;;;;;;;4.13;2.95;;;14.40;85.00;;;;;;5014532;28;20033;-61
2021/05/15 08:19:13;;;;;;;4.18;3.10;;;14.40;85.20;;;;;;5016515;28;20058;-61
2021/05/15 08:21:38;;;;;;;4.68;2.95;;;14.50;85.20;;;;;;5018540;28;20026;-62
2021/05/15 08:24:04;;;;;;;6.28;3.25;;;14.80;84.30;;;;;;5015764;28;20393;-63
2021/05/15 08:26:30;;;;;;;3.30;2.83;;;15.00;83.90;;;;;;5014172;28;20038;-65
2021/05/15 08:28:56;;;;;;;3.60;3.15;;;15.10;82.70;;;;;;5018160;28;20029;-64
2021/05/15 08:31:22;;;;;;;4.65;3.05;;;14.90;81.50;;;;;;5029589;28;20029;-65
2021/05/15 08:33:48;;;;;;;3.35;2.60;;;15.00;82.60;;;;;;5034253;28;20505;-64
2021/05/15 08:36:14;;;;;;;4.18;2.80;;;15.10;82.60;;;;;;5014044;28;20037;-64
2021/05/15 08:38:40;;;;;;;4.20;2.97;;;14.90;82.80;;;;;;5034422;28;20045;-60
2021/05/15 08:41:10;;;;;;;3.88;3.10;;;14.90;82.80;;;;;;5028716;28;20038;-62
2021/05/15 08:43:41;;;;;;;6.07;3.40;;;14.90;83.30;;;;;;5043425;28;20621;-59
2021/05/15 08:46:13;;;;;;;4.38;3.13;;;14.90;83.30;;;;;;5031475;28;20048;-61
2021/05/15 08:48:40;;;;;;;5.50;3.00;;;14.90;83.40;;;;;;5033689;28;20114;-62
2021/05/15 08:51:06;;;;;;;3.97;2.80;;;15.00;83.70;;;;;;5031901;28;20181;-63
2021/05/15 08:53:32;;;;;;;4.38;2.80;;;15.30;83.30;;;;;;5032116;28;20080;-63
2021/05/15 08:55:58;;;;;;;4.93;2.60;;;15.50;82.40;;;;;;5037963;28;20082;-62
2021/05/15 08:58:23;;;;;;;3.35;2.78;;;15.70;81.40;;;;;;5033183;28;20029;-60
2021/05/15 09:00:50;;;;;;;5.18;2.80;;;15.80;81.30;;;;;;5033638;28;20034;-63
2021/05/15 09:03:18;;;;;;;4.22;2.80;;;15.80;80.60;;;;;;5035292;28;20163;-61
2021/05/15 09:05:47;;;;;;;4.30;3.20;;;15.80;81.50;;;;;;5034702;28;20034;-61
2021/05/15 09:08:14;;;;;;;4.82;3.00;;;15.70;81.90;;;;;;5033605;28;20072;-61
2021/05/15 09:10:43;;;;;;;3.33;2.90;;;16.00;80.10;;;;;;5033425;28;20408;-60
2021/05/15 09:13:26;;;;;;;4.38;2.80;;;16.10;78.60;;;;;;5029710;28;20030;-61
2021/05/15 09:16:01;;;;;;;4.30;2.72;;;16.20;78.90;;;;;;5032731;28;20492;-61
2021/05/15 09:18:33;;;;;;;3.55;2.50;;;16.10;79.50;;;;;;5028881;28;20040;-61
2021/05/15 09:21:02;;;;;;;3.63;2.58;;;16.20;78.90;;;;;;5027808;28;20033;-61
2021/05/15 09:23:29;;;;;;;4.72;3.10;;;16.20;77.10;;;;;;5033426;28;20083;-64
2021/05/15 09:26:09;;;;;;;3.70;2.60;;;15.90;76.40;;;;;;5038595;28;20024;-63
2021/05/15 09:28:47;;;;;;;3.35;2.78;;;15.80;77.40;;;;;;5036391;28;20052;-60
2021/05/15 09:31:16;;;;;;;2.70;2.50;;;15.80;77.70;;;;;;5032645;28;20175;-60
2021/05/15 09:33:45;;;;;;;3.53;2.67;;;16.00;77.30;;;;;;5033136;28;20033;-61
2021/05/15 09:36:16;;;;;;;4.28;2.85;;;16.30;77.30;;;;;;5033074;28;20030;-63
2021/05/15 09:38:42;;;;;;;4.40;2.40;;;16.50;75.50;;;;;;5032526;28;20025;-61
2021/05/15 09:41:07;;;;;;;2.97;2.30;;;16.30;74.80;;;;;;5017728;28;20049;-61
2021/05/15 09:43:33;;;;;;;3.67;2.63;;;16.40;75.40;;;;;;5032991;28;20033;-61
2021/05/15 09:45:58;;;;;;;2.40;2.20;;;16.60;74.20;;;;;;5032763;28;20485;-61
2021/05/15 09:48:36;;;;;;;3.00;2.25;;;16.50;74.60;;;;;;5025067;28;20061;-61
2021/05/15 09:51:13;;;;;;;3.10;2.47;;;16.40;74.40;;;;;;5032324;28;20049;-63
2021/05/15 09:53:39;;;;;;;3.10;2.33;;;16.40;74.40;;;;;;5032869;28;20061;-61
2021/05/15 09:56:05;;;;;;;4.32;2.47;;;16.10;74.10;;;;;;5032831;28;20083;-61
2021/05/15 09:58:31;;;;;;;4.13;3.58;;;15.90;75.40;;;;;;5032631;28;20065;-61
2021/05/15 10:00:56;;;;;;;6.38;2.50;;;15.70;79.00;;;;;;5036702;28;20107;-63
2021/05/15 10:03:33;;;;;;;3.45;2.58;;;15.20;81.90;;;;;;5032546;28;20116;-62
2021/05/15 10:06:07;;;;;;;2.88;2.28;;;14.70;80.90;;;;;;5032806;28;20112;-64
2021/05/15 10:08:39;;;;;;;3.60;2.17;;;14.70;80.90;;;;;;5032515;28;20787;-62
2021/05/15 10:11:05;;;;;;;5.43;3.00;;;14.90;79.50;;;;;;5031901;28;20397;-62
2021/05/15 10:13:35;;;;;;;4.13;2.53;;;15.00;81.50;;;;;;5032672;28;20041;-62
2021/05/15 10:16:01;;;;;;;3.33;2.50;;;15.20;80.30;;;;;;5032160;28;20033;-61
2021/05/15 10:18:28;;;;;;;5.40;2.40;;;15.30;79.80;;;;;;5031845;28;20402;-63
2021/05/15 10:20:55;;;;;;;6.43;2.60;;;15.50;79.70;;;;;;5030727;28;20381;-63
2021/05/15 10:23:49;;;;;;;3.30;2.70;;;15.90;80.90;;;;;;5032140;28;20029;-63
2021/05/15 10:26:21;;;;;;;3.20;2.47;;;16.40;77.00;;;;;;5034572;28;20099;-60
2021/05/15 10:29:02;;;;;;;2.60;2.40;;;16.60;76.00;;;;;;5033461;28;20033;-62
2021/05/15 10:31:41;;;;;;;3.97;2.45;;;17.00;75.40;;;;;;5031159;28;20560;-62
2021/05/15 10:34:08;;;;;;;4.75;2.75;;;17.40;74.50;;;;;;5026492;28;20072;-63
2021/05/15 10:37:13;;;;;;;4.45;2.30;;;17.40;73.30;;;;;;5028998;28;20493;-62
2021/05/15 10:39:39;;;;;;;2.33;2.00;;;17.50;70.40;;;;;;5015843;28;20529;-63
2021/05/15 10:42:04;;;;;;;2.40;2.20;;;17.50;69.30;;;;;;5031153;28;20065;-63
2021/05/15 10:44:41;;;;;;;2.30;2.10;;;17.40;69.40;;;;;;5032089;28;20038;-62
2021/05/15 10:47:07;;;;;;;3.78;2.28;;;17.10;71.10;;;;;;5030905;28;20033;-61
2021/05/15 10:49:33;;;;;;;3.35;1.90;;;17.00;71.50;;;;;;5031870;28;20022;-61
2021/05/15 10:52:16;;;;;;;2.33;2.10;;;17.00;69.80;;;;;;5030547;28;20118;-63
2021/05/15 10:54:44;;;;;;;2.85;1.88;;;17.10;68.70;;;;;;5030316;28;20120;-62
2021/05/15 10:57:15;;;;;;;2.33;1.77;;;17.20;68.50;;;;;;5029784;28;20038;-61
2021/05/15 10:59:53;;;;;;;2.42;2.22;;;17.40;66.70;;;;;;5023131;28;20026;-63
2021/05/15 11:02:19;;;;;;;6.40;2.20;;;17.40;65.60;;;;;;5028635;28;20103;-62
2021/05/15 11:04:54;;;;;;;1.92;1.80;;;17.10;64.60;;;;;;5030403;28;20084;-62
2021/05/15 11:07:35;;;;;;;4.07;2.17;;;16.70;64.40;;;;;;5030534;28;20117;-66
2021/05/15 11:10:04;;;;;;;3.85;1.90;;;16.60;65.90;;;;;;5033569;28;20037;-63
2021/05/15 11:12:38;;;;;;;2.85;1.90;;;16.30;67.90;;;;;;5016953;28;20046;-60
2021/05/15 11:15:06;;;;;;;2.22;1.83;;;16.20;70.40;;;;;;5037171;28;20025;-61
2021/05/15 11:17:32;;;;;;;3.92;2.47;;;15.90;72.10;;;;;;5032904;28;20113;-62
2021/05/15 11:20:04;;;;;;;3.20;2.20;;;15.90;74.30;;;;;;5031055;28;20124;-61
2021/05/15 11:22:43;;;;;;;4.25;2.30;;;16.00;72.80;;;;;;5030700;28;20045;-62
2021/05/15 11:25:15;;;;;;;2.60;2.00;;;16.20;71.80;;;;;;5030293;28;20152;-61
2021/05/15 11:27:57;;;;;;;3.90;2.65;;;16.60;70.20;;;;;;5020270;28;20050;-64
2021/05/15 11:30:25;;;;;;;3.65;3.35;;;16.70;68.50;;;;;;5041453;28;20036;-65
2021/05/15 11:33:11;;;;;;;2.72;2.10;;;16.80;68.20;;;;;;5031357;28;20044;-63
2021/05/15 11:35:45;;;;;;;2.17;1.98;;;17.00;68.40;;;;;;5035199;28;20033;-62
2021/05/15 11:38:19;;;;;;;2.72;1.92;;;16.90;64.40;;;;;;5029399;28;20091;-62
2021/05/15 11:40:45;;;;;;;2.20;2.00;;;17.00;65.30;;;;;;5031000;28;20088;-62
2021/05/15 11:43:15;;;;;;;4.55;2.10;;;17.10;66.70;;;;;;5034252;28;20421;-61
2021/05/15 11:45:40;;;;;;;4.13;1.92;;;17.40;64.20;;;;;;5030086;28;20033;-62
2021/05/15 11:48:20;;;;;;;2.30;1.77;;;17.30;64.00;;;;;;5030668;28;20044;-63
2021/05/15 11:51:03;;;;;;;2.40;1.90;;;17.50;64.20;;;;;;5032927;28;20032;-62
2021/05/15 11:53:31;;;;;;;2.10;1.90;;;17.60;64.10;;;;;;5030262;28;20053;-63
2021/05/15 11:55:57;;;;;;;2.30;2.10;;;17.80;65.50;;;;;;5031271;28;20400;-62
2021/05/15 11:58:23;;;;;;;2.78;2.08;;;18.10;64.40;;;;;;5031096;28;20121;-62
2021/05/15 12:00:49;;;;;;;2.08;1.90;;;18.00;61.20;;;;;;5030958;28;20041;-61
2021/05/15 12:03:25;;;;;;;3.75;2.10;;;18.00;61.90;;;;;;5030909;28;20060;-62
2021/05/15 12:05:52;;;;;;;2.30;1.98;;;18.00;62.50;;;;;;5038255;28;20056;-62
2021/05/15 12:08:19;;;;;;;4.18;3.38;;;18.10;62.00;;;;;;5035301;28;20033;-61
2021/05/15 12:10:46;;;;;;;2.38;1.90;;;18.10;62.00;;;;;;5032966;28;20033;-61
2021/05/15 12:13:13;;;;;;;3.35;2.00;;;18.20;61.30;;;;;;5033959;28;20036;-62
2021/05/15 12:15:43;;;;;;;3.25;2.20;;;18.00;60.60;;;;;;5032915;28;20057;-62
2021/05/15 12:18:11;;;;;;;3.85;2.38;;;18.00;61.90;;;;;;5028368;28;20116;-63
2021/05/15 12:20:45;;;;;;;2.72;1.92;;;18.20;62.10;;;;;;5025952;28;20088;-61
2021/05/15 12:23:25;;;;;;;1.88;1.77;;;18.30;58.80;;;;;;5038691;28;20068;-64
2021/05/15 12:26:03;;;;;;;2.13;1.98;;;18.30;59.30;;;;;;5033315;28;20500;-62
2021/05/15 12:28:36;;;;;;;3.30;2.20;;;18.10;59.40;;;;;;5031379;28;20045;-62
2021/05/15 12:31:03;;;;;;;2.20;2.00;;;17.90;60.20;;;;;;5031368;28;20033;-64
2021/05/15 12:33:29;;;;;;;2.97;2.30;;;17.80;60.10;;;;;;5039462;28;20036;-61
2021/05/15 12:36:08;;;;;;;2.28;2.05;;;18.00;61.00;;;;;;5030540;28;20090;-61
2021/05/15 12:38:53;;;;;;;3.05;2.15;;;17.80;61.40;;;;;;5028262;28;20029;-63
2021/05/15 12:41:36;;;;;;;2.80;2.10;;;17.90;60.60;;;;;;5029392;28;20048;-63
2021/05/15 12:44:06;;;;;;;3.20;2.40;;;17.80;59.40;;;;;;5034211;28;20030;-62